Time;durP1;ratioP1;P1;durP2;ratioP2;P2;SDS_P1;SDS_P2;PMS_P1;PMS_P2;Temp;Humidity;BMP_temperature;BMP_pressure;BME280_temperature;BME280_humidity;BME280_pressure;Samples;Min_cycle;Max_cycle;Signal;HPM_P1;HPM_P2
2021/03/22 00:01:25;;;;;;;;;;;;;;;2.71;100.00;100078.31;5092956;28;19964;-84
2021/03/22 00:03:53;;;;;;;;;;;;;;;2.62;100.00;100074.88;5093046;28;19924;-83
2021/03/22 00:06:19;;;;;;;;;;;;;;;2.61;100.00;100070.47;5092504;28;19924;-83
2021/03/22 00:08:46;;;;;;;;;;;;;;;2.52;100.00;100072.56;5058110;28;19925;-83
2021/03/22 00:11:13;;;;;;;;;;;;;;;2.58;100.00;100076.69;5096862;28;19924;-83
2021/03/22 00:13:40;;;;;;;;;;;;;;;2.55;100.00;100071.88;5113649;28;19965;-83
2021/03/22 00:16:07;;;;;;;;;;;;;;;2.54;100.00;100067.50;5096675;28;20394;-83
2021/03/22 00:18:35;;;;;;;;;;;;;;;2.29;100.00;100052.13;5093777;28;19956;-83
2021/03/22 00:21:03;;;;;;;;;;;;;;;2.27;100.00;100054.41;5096607;28;19924;-83
2021/03/22 00:23:30;;;;;;;;;;;;;;;2.44;100.00;100046.69;5097055;28;19924;-84
2021/03/22 00:25:57;;;;;;;;;;;;;;;2.92;100.00;100056.88;5096649;28;19924;-82
2021/03/22 00:28:24;;;;;;;;;;;;;;;3.49;100.00;100049.03;5096379;28;20009;-83
2021/03/22 00:30:52;;;;;;;;;;;;;;;3.60;100.00;100053.69;5096403;28;19924;-83
2021/03/22 00:33:19;;;;;;;;;;;;;;;3.59;100.00;100051.28;5096211;28;19928;-83
2021/03/22 00:35:46;;;;;;;;;;;;;;;3.61;100.00;100057.28;5113126;28;19924;-83
2021/03/22 00:38:13;;;;;;;;;;;;;;;3.66;100.00;100051.50;5079379;28;19988;-83
2021/03/22 00:40:41;;;;;;;;;;;;;;;3.61;100.00;100044.25;5096198;28;20287;-83
2021/03/22 00:43:08;;;;;;;;;;;;;;;3.62;100.00;100036.75;5096073;28;20314;-83
2021/03/22 00:45:40;;;;;;;;;;;;;;;3.52;100.00;100048.34;5097399;28;19974;-83
2021/03/22 00:48:07;;;;;;;;;;;;;;;3.29;100.00;100042.56;5097317;28;19931;-83
2021/03/22 00:50:38;;;;;;;;;;;;;;;3.42;100.00;100035.03;5058836;28;20287;-83
2021/03/22 00:53:05;;;;;;;;;;;;;;;3.24;100.00;100033.75;5089769;28;19931;-83
2021/03/22 00:55:32;;;;;;;;;;;;;;;3.18;100.00;100033.19;5076575;28;20272;-83
2021/03/22 00:57:59;;;;;;;;;;;;;;;3.10;100.00;100028.63;5092662;28;20055;-83
2021/03/22 01:00:40;;;;;;;;;;;;;;;3.22;100.00;100025.00;5110097;28;19946;-83
2021/03/22 01:03:09;;;;;;;;;;;;;;;2.97;100.00;100029.81;5075470;28;19924;-83
2021/03/22 01:05:36;;;;;;;;;;;;;;;2.94;100.00;100026.97;5093846;28;19924;-83
2021/03/22 01:08:03;;;;;;;;;;;;;;;3.01;100.00;100018.88;5086018;28;19924;-83
2021/03/22 01:10:32;;;;;;;;;;;;;;;3.12;100.00;100020.78;5091466;28;20034;-83
2021/03/22 01:12:59;;;;;;;;;;;;;;;3.07;100.00;100017.47;5095720;28;19924;-83
2021/03/22 01:15:26;;;;;;;;;;;;;;;3.00;100.00;100018.06;5096721;28;20599;-83
2021/03/22 01:17:53;;;;;;;;;;;;;;;3.02;100.00;100015.75;5095856;28;19931;-83
2021/03/22 01:20:39;;;;;;;;;;;;;;;2.95;100.00;100018.31;5094420;28;20271;-83
2021/03/22 01:23:06;;;;;;;;;;;;;;;2.92;100.00;100009.94;5075316;28;19998;-83
2021/03/22 01:25:33;;;;;;;;;;;;;;;2.79;100.00;100011.09;5101983;28;20375;-83
2021/03/22 01:27:59;;;;;;;;;;;;;;;2.74;100.00;100011.38;5096515;28;19931;-83
2021/03/22 01:30:36;;;;;;;;;;;;;;;2.66;100.00;100012.28;5097201;28;20009;-83
2021/03/22 01:33:16;;;;;;;;;;;;;;;2.71;100.00;100001.03;5077817;28;19924;-83
2021/03/22 01:35:43;;;;;;;;;;;;;;;2.66;100.00;100002.06;5075101;28;19925;-83
2021/03/22 01:38:10;;;;;;;;;;;;;;;2.61;100.00;100001.50;5078375;28;20283;-83
2021/03/22 01:40:55;;;;;;;;;;;;;;;2.49;100.00;100004.28;5095405;28;19924;-83
2021/03/22 01:43:24;;;;;;;;;;;;;;;2.71;100.00;100003.78;5095023;28;19956;-83
2021/03/22 01:45:51;;;;;;;;;;;;;;;2.35;100.00;99993.59;5095118;28;19931;-83
2021/03/22 01:48:18;;;;;;;;;;;;;;;2.42;100.00;99998.56;5111595;28;19968;-83
2021/03/22 01:50:45;;;;;;;;;;;;;;;2.54;100.00;99999.34;5078499;28;20346;-83
2021/03/22 01:53:12;;;;;;;;;;;;;;;2.60;100.00;99994.38;5095994;28;19931;-83
2021/03/22 01:55:39;;;;;;;;;;;;;;;2.77;100.00;99991.34;5095204;28;19973;-83
2021/03/22 01:58:05;;;;;;;;;;;;;;;2.72;100.00;99992.41;5096175;28;19924;-83
2021/03/22 02:00:34;;;;;;;;;;;;;;;2.70;100.00;99985.59;5094687;28;20442;-83
2021/03/22 02:03:12;;;;;;;;;;;;;;;2.70;100.00;99986.41;5094829;28;19977;-83
2021/03/22 02:06:04;;;;;;;;;;;;;;;2.59;100.00;99987.25;5074554;28;19931;-83
2021/03/22 02:08:39;;;;;;;;;;;;;;;2.61;100.00;99982.19;5088444;28;19924;-83
2021/03/22 02:11:15;;;;;;;;;;;;;;;2.58;100.00;99988.38;5094720;28;20374;-83
2021/03/22 02:13:42;;;;;;;;;;;;;;;2.57;100.00;99990.38;5094339;28;20027;-83
2021/03/22 02:16:13;;;;;;;;;;;;;;;2.64;100.00;99987.00;5094135;28;19966;-83
2021/03/22 02:18:39;;;;;;;;;;;;;;;2.78;100.00;99993.75;5053317;28;19924;-83
2021/03/22 02:21:12;;;;;;;;;;;;;;;2.94;100.00;99986.34;5106692;28;20291;-83
2021/03/22 02:23:51;;;;;;;;;;;;;;;2.81;100.00;99986.72;5074736;28;19925;-83
2021/03/22 02:26:34;;;;;;;;;;;;;;;2.90;100.00;99990.97;5091709;28;19931;-83
2021/03/22 02:29:20;;;;;;;;;;;;;;;2.94;100.00;99989.09;5077652;28;20014;-83
2021/03/22 02:31:59;;;;;;;;;;;;;;;3.04;100.00;99985.84;5076458;28;20371;-83
2021/03/22 02:34:55;;;;;;;;;;;;;;;3.25;100.00;99991.16;5095889;28;19924;-83
2021/03/22 02:37:25;;;;;;;;;;;;;;;3.38;100.00;99998.22;5074359;28;19924;-83
2021/03/22 02:40:05;;;;;;;;;;;;;;;3.34;100.00;100000.91;5095220;28;19954;-83
2021/03/22 02:42:31;;;;;;;;;;;;;;;3.33;100.00;99999.28;5094443;28;19931;-83
2021/03/22 02:44:58;;;;;;;;;;;;;;;3.41;100.00;100001.06;5093959;28;19935;-83
2021/03/22 02:47:25;;;;;;;;;;;;;;;3.53;100.00;99989.94;5094924;28;19924;-83
2021/03/22 02:49:52;;;;;;;;;;;;;;;3.47;100.00;99993.31;5111126;28;19928;-83
2021/03/22 02:52:31;;;;;;;;;;;;;;;3.29;100.00;99992.03;5080419;28;19932;-82
2021/03/22 02:55:13;;;;;;;;;;;;;;;3.15;100.00;99991.66;5073770;28;20021;-83
2021/03/22 02:57:43;;;;;;;;;;;;;;;3.29;100.00;99994.81;5098678;28;19924;-83
2021/03/22 03:00:15;;;;;;;;;;;;;;;3.22;100.00;99994.63;5094417;28;19931;-83
2021/03/22 03:02:42;;;;;;;;;;;;;;;3.13;100.00;99991.22;5094358;28;19966;-83
2021/03/22 03:05:20;;;;;;;;;;;;;;;3.00;100.00;99986.91;5077158;28;19924;-83
2021/03/22 03:07:48;;;;;;;;;;;;;;;2.88;100.00;99984.16;5081416;28;19928;-83
2021/03/22 03:10:16;;;;;;;;;;;;;;;2.72;100.00;99975.03;5076638;28;20367;-83
2021/03/22 03:12:44;;;;;;;;;;;;;;;2.61;100.00;99982.19;5093671;28;20298;-83
2021/03/22 03:15:11;;;;;;;;;;;;;;;2.48;100.00;99977.84;5093159;28;19924;-83
2021/03/22 03:17:45;;;;;;;;;;;;;;;2.39;100.00;99974.41;5109417;28;20030;-83
2021/03/22 03:20:13;;;;;;;;;;;;;;;2.48;100.00;99972.34;5094436;28;19930;-83
2021/03/22 03:22:40;;;;;;;;;;;;;;;2.59;100.00;99976.22;5093116;28;20023;-83
2021/03/22 03:25:08;;;;;;;;;;;;;;;2.41;100.00;99981.19;5076193;28;20027;-83
2021/03/22 03:27:35;;;;;;;;;;;;;;;2.30;100.00;99984.78;5093228;28;20015;-83
2021/03/22 03:30:10;;;;;;;;;;;;;;;2.41;100.00;99983.16;5092784;28;20344;-83
2021/03/22 03:32:36;;;;;;;;;;;;;;;2.35;100.00;99974.31;5093182;28;19946;-83
2021/03/22 03:35:04;;;;;;;;;;;;;;;2.31;100.00;99983.63;5110011;28;19923;-83
2021/03/22 03:37:31;;;;;;;;;;;;;;;2.41;100.00;99977.66;5092797;28;20022;-83
2021/03/22 03:39:57;;;;;;;;;;;;;;;2.32;100.00;99976.97;5092912;28;19928;-83
2021/03/22 03:42:24;;;;;;;;;;;;;;;2.33;100.00;99981.31;5093168;28;19931;-83
2021/03/22 03:44:51;;;;;;;;;;;;;;;2.30;100.00;99979.25;5091708;28;19976;-83
2021/03/22 03:47:18;;;;;;;;;;;;;;;2.25;100.00;99979.50;5092973;28;19928;-83
2021/03/22 03:49:44;;;;;;;;;;;;;;;2.45;100.00;99987.63;5072404;28;19931;-83
2021/03/22 03:52:11;;;;;;;;;;;;;;;2.51;100.00;99985.44;5074183;28;19924;-83
2021/03/22 03:54:38;;;;;;;;;;;;;;;2.49;100.00;99984.97;5091813;28;19932;-83
2021/03/22 03:57:05;;;;;;;;;;;;;;;2.48;100.00;99983.38;5092391;28;19963;-83
2021/03/22 03:59:31;;;;;;;;;;;;;;;2.61;100.00;99982.19;5109247;28;20067;-83
2021/03/22 04:01:58;;;;;;;;;;;;;;;2.63;100.00;99990.91;5092344;28;19954;-83
2021/03/22 04:04:24;;;;;;;;;;;;;;;2.46;100.00;99999.44;5092758;28;19947;-83
2021/03/22 04:06:51;;;;;;;;;;;;;;;2.42;100.00;99987.50;5092686;28;20011;-84
2021/03/22 04:09:20;;;;;;;;;;;;;;;2.42;100.00;99984.75;5075844;28;19935;-84
2021/03/22 04:11:48;;;;;;;;;;;;;;;2.47;100.00;99993.59;5092585;28;19933;-84
2021/03/22 04:14:20;;;;;;;;;;;;;;;2.48;100.00;99994.41;5093440;28;19969;-84
2021/03/22 04:16:47;;;;;;;;;;;;;;;2.48;100.00;99986.94;5092595;28;19946;-84
2021/03/22 04:19:15;;;;;;;;;;;;;;;2.01;100.00;99987.78;5092737;28;19924;-83
2021/03/22 04:21:43;;;;;;;;;;;;;;;1.96;100.00;99999.03;5080209;28;19936;-83
2021/03/22 04:24:10;;;;;;;;;;;;;;;1.94;100.00;99990.31;5075676;28;20023;-83
2021/03/22 04:26:37;;;;;;;;;;;;;;;2.01;100.00;99996.03;5073902;28;19925;-84
2021/03/22 04:29:04;;;;;;;;;;;;;;;2.52;100.00;99995.31;5090280;28;19931;-83
2021/03/22 04:31:30;;;;;;;;;;;;;;;2.34;100.00;99999.47;5093482;28;19977;-83
2021/03/22 04:33:58;;;;;;;;;;;;;;;2.32;100.00;100004.56;5093947;28;19931;-83
2021/03/22 04:36:26;;;;;;;;;;;;;;;2.32;100.00;100008.09;5075327;28;20333;-83
2021/03/22 04:38:53;;;;;;;;;;;;;;;2.39;100.00;99996.50;5080050;28;19924;-83
2021/03/22 04:41:20;;;;;;;;;;;;;;;2.48;100.00;100005.44;5091955;28;20298;-83
2021/03/22 04:43:47;;;;;;;;;;;;;;;2.91;100.00;100013.81;5092390;28;19931;-83
2021/03/22 04:46:14;;;;;;;;;;;;;;;2.76;100.00;100014.56;5093340;28;19924;-83
2021/03/22 04:48:54;;;;;;;;;;;;;;;2.54;100.00;100015.91;5092585;28;20268;-83
2021/03/22 04:51:20;;;;;;;;;;;;;;;2.42;100.00;100015.09;5092078;28;20294;-83
2021/03/22 04:53:47;;;;;;;;;;;;;;;2.51;100.00;100022.09;5072327;28;19924;-83
2021/03/22 04:56:14;;;;;;;;;;;;;;;2.61;100.00;100016.09;5091212;28;19924;-83
2021/03/22 04:58:41;;;;;;;;;;;;;;;2.53;100.00;100019.78;5096089;28;20371;-83
2021/03/22 05:01:08;;;;;;;;;;;;;;;2.70;100.00;100033.31;5096413;28;20359;-83
2021/03/22 05:03:35;;;;;;;;;;;;;;;2.79;100.00;100039.53;5112627;28;20329;-83
2021/03/22 05:06:03;;;;;;;;;;;;;;;2.83;100.00;100050.69;5059641;28;20280;-83
2021/03/22 05:08:29;;;;;;;;;;;;;;;3.16;100.00;100048.50;5094638;28;20375;-83
2021/03/22 05:10:59;;;;;;;;;;;;;;;3.11;100.00;100044.03;5095595;28;20294;-83
2021/03/22 05:13:26;;;;;;;;;;;;;;;3.25;100.00;100054.69;5095481;28;19924;-83
2021/03/22 05:15:53;;;;;;;;;;;;;;;3.51;100.00;100060.56;5075564;28;20015;-83
2021/03/22 05:18:20;;;;;;;;;;;;;;;3.54;100.00;100065.38;5074265;28;19931;-83
2021/03/22 05:20:48;;;;;;;;;;;;;;;3.55;100.00;100070.56;5095619;28;20032;-83
2021/03/22 05:23:21;;;;;;;;;;;;;;;3.57;100.00;100086.78;5097009;28;20375;-83
2021/03/22 05:25:49;;;;;;;;;;;;;;;3.69;100.00;100100.53;5095536;28;19928;-83
2021/03/22 05:28:17;;;;;;;;;;;;;;;3.79;100.00;100110.28;5096632;28;20272;-83
2021/03/22 05:30:43;;;;;;;;;;;;;;;3.93;100.00;100114.22;5096645;28;20505;-83
2021/03/22 05:33:11;;;;;;;;;;;;;;;4.09;100.00;100126.09;5096472;28;19924;-83
2021/03/22 05:35:38;;;;;;;;;;;;;;;4.19;100.00;100142.19;5112380;28;19939;-83
2021/03/22 05:38:06;;;;;;;;;;;;;;;4.35;100.00;100140.25;5095625;28;19930;-83
2021/03/22 05:40:38;;;;;;;;;;;;;;;4.40;100.00;100145.50;5094938;28;19924;-83
2021/03/22 05:43:17;;;;;;;;;;;;;;;4.36;100.00;100141.84;5078855;28;20388;-83
2021/03/22 05:45:54;;;;;;;;;;;;;;;4.37;100.00;100129.63;5077268;28;20283;-83
2021/03/22 05:48:26;;;;;;;;;;;;;;;4.38;100.00;100142.28;5095084;28;19931;-83
2021/03/22 05:50:59;;;;;;;;;;;;;;;4.48;100.00;100150.09;5096297;28;19924;-83
2021/03/22 05:53:46;;;;;;;;;;;;;;;4.46;100.00;100155.16;5095424;28;19924;-83
2021/03/22 05:56:22;;;;;;;;;;;;;;;4.43;100.00;100163.38;5096147;28;19924;-83
2021/03/22 05:58:48;;;;;;;;;;;;;;;4.53;100.00;100162.84;5095249;28;19935;-83
2021/03/22 06:01:25;;;;;;;;;;;;;;;4.52;100.00;100172.28;5094698;28;20432;-83
2021/03/22 06:03:57;;;;;;;;;;;;;;;4.53;100.00;100171.94;5095322;28;19924;-83
2021/03/22 06:06:41;;;;;;;;;;;;;;;4.52;100.00;100184.19;5094078;28;19924;-82
2021/03/22 06:09:30;;;;;;;;;;;;;;;4.50;100.00;100180.94;5111565;28;20397;-83
2021/03/22 06:11:58;;;;;;;;;;;;;;;4.52;100.00;100195.25;5100192;28;20379;-83
2021/03/22 06:14:24;;;;;;;;;;;;;;;4.53;100.00;100196.84;5094126;28;19928;-83
2021/03/22 06:16:56;;;;;;;;;;;;;;;4.55;100.00;100200.06;5094851;28;19986;-83
2021/03/22 06:19:37;;;;;;;;;;;;;;;4.53;100.00;100196.06;5090578;28;20283;-83
2021/03/22 06:22:04;;;;;;;;;;;;;;;4.52;100.00;100206.31;5094429;28;19924;-83
2021/03/22 06:24:30;;;;;;;;;;;;;;;4.54;100.00;100206.78;5077733;28;20400;-83
2021/03/22 06:26:58;;;;;;;;;;;;;;;4.55;100.00;100215.88;5095594;28;19924;-83
2021/03/22 06:29:32;;;;;;;;;;;;;;;4.54;100.00;100204.00;5099526;28;19970;-82
2021/03/22 06:32:01;;;;;;;;;;;;;;;4.54;100.00;100198.47;5094587;28;19928;-83
2021/03/22 06:34:36;;;;;;;;;;;;;;;4.54;100.00;100204.00;5094183;28;19924;-83
2021/03/22 06:37:03;;;;;;;;;;;;;;;4.51;100.00;100214.97;5094887;28;20017;-83
2021/03/22 06:39:30;;;;;;;;;;;;;;;4.50;100.00;100214.16;5085313;28;19927;-82
2021/03/22 06:41:57;;;;;;;;;;;;;;;4.53;100.00;100207.13;5074380;28;19928;-83
2021/03/22 06:44:33;;;;;;;;;;;;;;;4.59;100.00;100217.56;5080987;28;19924;-84
2021/03/22 06:46:59;;;;;;;;;;;;;;;4.63;100.00;100218.47;5077414;28;19928;-81
2021/03/22 06:49:28;;;;;;;;;;;;;;;4.67;100.00;100224.91;5086021;28;19966;-83
2021/03/22 06:51:58;;;;;;;;;;;;;;;4.64;100.00;100220.06;5086794;28;19931;-77
2021/03/22 06:54:35;;;;;;;;;;;;;;;4.66;100.00;100228.84;5093612;28;20383;-82
2021/03/22 06:57:12;;;;;;;;;;;;;;;4.73;100.00;100226.25;5080577;28;19928;-83
2021/03/22 06:59:39;;;;;;;;;;;;;;;4.77;100.00;100224.34;5079107;28;19963;-82
2021/03/22 07:02:20;;;;;;;;;;;;;;;4.74;100.00;100225.06;5090693;28;19956;-82
2021/03/22 07:04:47;;;;;;;;;;;;;;;4.76;100.00;100221.94;5091209;28;19924;-82
2021/03/22 07:07:21;;;;;;;;;;;;;;;4.75;100.00;100223.94;5091749;28;19924;-82
2021/03/22 07:09:59;;;;;;;;;;;;;;;4.77;100.00;100224.34;5090378;28;19924;-82
2021/03/22 07:12:33;;;;;;;;;;;;;;;4.79;100.00;100233.13;5090374;28;20554;-82
2021/03/22 07:15:15;;;;;;;;;;;;;;;4.78;100.00;100231.53;5089732;28;20025;-80
2021/03/22 07:17:42;;;;;;;;;;;;;;;4.80;100.00;100236.72;5077096;28;20378;-80
2021/03/22 07:20:13;;;;;;;;;;;;;;;4.88;100.00;100232.94;5090305;28;19935;-81
2021/03/22 07:22:40;;;;;;;;;;;;;;;4.88;100.00;100236.53;5090653;28;19924;-81
2021/03/22 07:25:31;;;;;;;;;;;;;;;5.15;100.00;100235.59;5090325;28;20957;-83
2021/03/22 07:28:04;;;;;;;;;;;;;;;5.02;100.00;100234.09;5096004;28;19924;-83
2021/03/22 07:30:38;;;;;;;;;;;;;;;5.04;100.00;100237.31;5104026;28;20435;-84
2021/03/22 07:33:20;;;;;;;;;;;;;;;5.18;100.00;100243.19;5093022;28;19982;-84
2021/03/22 07:35:50;;;;;;;;;;;;;;;5.26;100.00;100222.00;5093690;28;20475;-84
2021/03/22 07:38:32;;;;;;;;;;;;;;;5.24;100.00;100219.59;5093011;28;19924;-84
2021/03/22 07:41:06;;;;;;;;;;;;;;;5.31;100.00;100222.53;5076291;28;20024;-83
2021/03/22 07:43:55;;;;;;;;;;;;;;;5.46;100.00;100218.94;5093746;28;19932;-84
2021/03/22 07:46:28;;;;;;;;;;;;;;;5.39;100.00;100195.78;5080115;28;19928;-84
2021/03/22 07:49:20;;;;;;;;;;;;;;;5.68;100.00;100198.00;5076697;28;20389;-84
2021/03/22 07:51:55;;;;;;;;;;;;;;;5.81;100.00;100201.44;5093981;28;19931;-84
2021/03/22 07:54:31;;;;;;;;;;;;;;;6.06;100.00;100192.47;5092599;28;20460;-82
2021/03/22 07:57:11;;;;;;;;;;;;;;;6.55;100.00;100181.50;5075677;28;19950;-79
2021/03/22 07:59:44;;;;;;;;;;;;;;;6.57;100.00;100156.94;5093567;28;20015;-78
2021/03/22 08:02:34;;;;;;;;;;;;;;;6.28;100.00;100138.19;5093432;28;19956;-78
2021/03/22 08:05:12;;;;;;;;;;;;;;;6.12;100.00;100134.72;5082075;28;19931;-78
2021/03/22 08:07:51;;;;;;;;;;;;;;;6.05;100.00;100126.25;5093348;28;20385;-78
2021/03/22 08:10:21;;;;;;;;;;;;;;;6.05;100.00;100117.94;5092181;28;19931;-79
2021/03/22 08:12:47;;;;;;;;;;;;;;;6.17;100.00;100115.78;5093202;28;19994;-79
2021/03/22 08:15:33;;;;;;;;;;;;;;;6.32;100.00;100116.84;5091794;28;20306;-78
2021/03/22 08:18:07;;;;;;;;;;;;;;;6.33;100.00;100107.34;5073312;28;20007;-79
2021/03/22 08:20:35;;;;;;;;;;;;;;;6.42;100.00;100110.69;5093220;28;19958;-78
2021/03/22 08:23:16;;;;;;;;;;;;;;;6.14;100.00;100099.06;5093058;28;19977;-78
2021/03/22 08:25:48;;;;;;;;;;;;;;;6.00;100.00;100104.38;5093408;28;20014;-78
2021/03/22 08:28:15;;;;;;;;;;;;;;;6.15;100.00;100103.47;5093090;28;19924;-78
2021/03/22 08:31:01;;;;;;;;;;;;;;;6.33;100.00;100091.47;5094452;28;19928;-78
2021/03/22 08:33:28;;;;;;;;;;;;;;;6.43;100.00;100084.50;5095779;28;22119;-78
2021/03/22 08:35:54;;;;;;;;;;;;;;;6.50;100.00;100084.63;5097337;28;19924;-82
2021/03/22 08:38:39;;;;;;;;;;;;;;;6.43;100.00;100078.97;5097553;28;19928;-81
2021/03/22 08:41:19;;;;;;;;;;;;;;;6.20;100.00;100064.28;5097697;28;19931;-81
2021/03/22 08:43:49;;;;;;;;;;;;;;;5.80;100.00;100067.50;5096364;28;19924;-82
2021/03/22 08:46:24;;;;;;;;;;;;;;;6.16;100.00;100063.44;5097787;28;20428;-79
2021/03/22 08:48:52;;;;;;;;;;;;;;;6.67;100.00;100061.88;5095934;28;19928;-81
2021/03/22 08:51:21;;;;;;;;;;;;;;;6.24;100.00;100063.19;5096457;28;19956;-81
2021/03/22 08:53:50;;;;;;;;;;;;;;;6.45;100.00;100059.97;5079524;28;19963;-81
2021/03/22 08:56:26;;;;;;;;;;;;;;;6.84;100.00;100058.59;5113097;28;19924;-81
2021/03/22 08:58:55;;;;;;;;;;;;;;;6.98;100.00;100042.13;5076040;28;19924;-81
2021/03/22 09:01:29;;;;;;;;;;;;;;;7.07;100.00;100039.84;5095309;28;20352;-81
2021/03/22 09:04:09;;;;;;;;;;;;;;;6.92;100.00;100038.06;5094263;28;19959;-82
2021/03/22 09:06:55;;;;;;;;;;;;;;;6.65;100.00;100031.72;5094356;28;19953;-82
2021/03/22 09:09:25;;;;;;;;;;;;;;;6.79;100.00;100022.78;5069246;28;20452;-91
2021/03/22 09:11:52;;;;;;;;;;;;;;;6.96;100.00;100025.00;5058794;28;19932;-82
2021/03/22 09:14:25;;;;;;;;;;;;;;;6.86;100.00;100004.22;5105797;28;20073;-81
2021/03/22 09:16:52;;;;;;;;;;;;;;;7.10;100.00;100008.53;5095565;28;19924;-81
2021/03/22 09:19:22;;;;;;;;;;;;;;;7.05;100.00;99995.78;5096267;28;20035;-81
2021/03/22 09:21:53;;;;;;;;;;;;;;;7.04;100.00;99994.16;5095439;28;20006;-80
2021/03/22 09:24:42;;;;;;;;;;;;;;;7.23;100.00;99985.66;5088160;28;20359;-81
2021/03/22 09:27:19;;;;;;;;;;;;;;;7.24;100.00;99970.59;5093687;28;19931;-80
2021/03/22 09:30:01;;;;;;;;;;;;;;;7.01;100.00;99956.00;5089236;28;20041;-84
2021/03/22 09:32:34;;;;;;;;;;;;;;;7.06;100.00;99946.53;5057780;28;19932;-84
2021/03/22 09:35:04;;;;;;;;;;;;;;;6.73;100.00;99938.19;5086064;28;19931;-85
2021/03/22 09:37:53;;;;;;;;;;;;;;;6.63;100.00;99939.66;5077655;28;19925;-85
2021/03/22 09:40:19;;;;;;;;;;;;;;;6.59;100.00;99951.88;5074499;28;19934;-85
2021/03/22 09:43:05;;;;;;;;;;;;;;;6.71;100.00;99946.09;5091454;28;19931;-86
2021/03/22 09:45:32;;;;;;;;;;;;;;;6.62;100.00;99948.38;5091645;28;20027;-86
2021/03/22 09:48:19;;;;;;;;;;;;;;;6.92;100.00;99933.28;5086785;28;20068;-86
2021/03/22 09:50:51;;;;;;;;;;;;;;;6.41;100.00;99910.00;5073808;28;19933;-86
2021/03/22 09:53:26;;;;;;;;;;;;;;;6.32;100.00;99922.53;5067276;28;19981;-88
2021/03/22 09:55:59;;;;;;;;;;;;;;;6.43;100.00;99926.28;5088954;28;20011;-87
2021/03/22 09:58:34;;;;;;;;;;;;;;;6.53;100.00;99945.03;5092419;28;19931;-86
2021/03/22 10:01:04;;;;;;;;;;;;;;;6.68;100.00;99902.44;5068394;28;20015;-86
2021/03/22 10:03:32;;;;;;;;;;;;;;;6.97;100.00;99898.78;5075012;28;20389;-86
2021/03/22 10:06:03;;;;;;;;;;;;;;;7.15;100.00;99883.91;5093514;28;19924;-84
2021/03/22 10:08:34;;;;;;;;;;;;;;;7.54;100.00;99884.31;5091601;28;19931;-79
2021/03/22 10:11:03;;;;;;;;;;;;;;;7.41;100.00;99885.75;5092204;28;19924;-81
2021/03/22 10:13:30;;;;;;;;;;;;;;;7.40;100.00;99892.50;5091586;28;20014;-79
2021/03/22 10:16:29;;;;;;;;;;;;;;;7.52;100.00;99881.09;5091636;28;19924;-79
2021/03/22 10:19:03;;;;;;;;;;;;;;;7.72;100.00;99884.47;5053831;28;19924;-79
2021/03/22 10:21:43;;;;;;;;;;;;;;;8.00;100.00;99873.53;5090642;28;19928;-79
2021/03/22 10:24:12;;;;;;;;;;;;;;;7.86;100.00;99879.78;5090945;28;19928;-82
2021/03/22 10:26:44;;;;;;;;;;;;;;;7.80;100.00;99881.34;5092100;28;20014;-84
2021/03/22 10:29:12;;;;;;;;;;;;;;;7.98;100.00;99879.47;5083185;28;19924;-81
2021/03/22 10:31:40;;;;;;;;;;;;;;;7.97;100.00;99888.22;5074227;28;19934;-90
2021/03/22 10:34:18;;;;;;;;;;;;;;;7.95;100.00;99899.75;5088276;28;19925;-81
2021/03/22 10:36:45;;;;;;;;;;;;;;;8.03;100.00;99901.41;5088181;28;20026;-86
2021/03/22 10:39:23;;;;;;;;;;;;;;;8.03;100.00;99898.63;5091476;28;20401;-83
2021/03/22 10:41:49;;;;;;;;;;;;;;;8.12;100.00;99895.50;5070978;28;19925;-84
2021/03/22 10:44:26;;;;;;;;;;;;;;;8.08;100.00;99891.88;5105584;28;20022;-85
2021/03/22 10:47:10;;;;;;;;;;;;;;;8.03;100.00;99884.69;5099279;28;19924;-85
2021/03/22 10:49:37;;;;;;;;;;;;;;;8.04;100.00;99894.63;5055915;28;19930;-88
2021/03/22 10:52:18;;;;;;;;;;;;;;;8.01;100.00;99902.97;5072943;28;19924;-87
2021/03/22 10:54:46;;;;;;;;;;;;;;;8.01;100.00;99898.19;5094674;28;19924;-87
2021/03/22 10:57:15;;;;;;;;;;;;;;;8.17;100.00;99889.56;5071097;28;20020;-89
2021/03/22 10:59:44;;;;;;;;;;;;;;;8.30;100.00;99883.31;5082688;28;19928;-91
2021/03/22 11:02:30;;;;;;;;;;;;;;;8.40;100.00;99857.53;5073108;28;19971;-89
2021/03/22 11:04:57;;;;;;;;;;;;;;;8.04;100.00;99886.28;5044424;28;19925;-92
2021/03/22 11:07:25;;;;;;;;;;;;;;;8.01;100.00;99891.84;5097326;28;19990;-91
2021/03/22 11:09:57;;;;;;;;;;;;;;;7.88;100.00;99885.78;5080152;28;19939;-88
2021/03/22 11:12:26;;;;;;;;;;;;;;;8.00;100.00;99882.69;5089053;28;20015;-86
2021/03/22 11:15:16;;;;;;;;;;;;;;;8.21;100.00;99885.63;5077862;28;19924;-87
2021/03/22 11:17:44;;;;;;;;;;;;;;;8.11;100.00;99891.13;5058853;28;19924;-88
2021/03/22 11:20:17;;;;;;;;;;;;;;;8.03;100.00;99889.47;5078248;28;19978;-85
2021/03/22 11:22:45;;;;;;;;;;;;;;;8.21;100.00;99884.84;5091309;28;19924;-87
2021/03/22 11:25:30;;;;;;;;;;;;;;;8.33;100.00;99893.66;5061040;28;19924;-85
2021/03/22 11:28:01;;;;;;;;;;;;;;;8.58;100.00;99891.03;5073312;28;19925;-87
2021/03/22 11:30:31;;;;;;;;;;;;;;;8.54;100.00;99879.88;5093093;28;20005;-87
2021/03/22 11:32:58;;;;;;;;;;;;;;;8.62;100.00;99878.72;5070355;28;19931;-86
2021/03/22 11:35:26;;;;;;;;;;;;;;;8.59;100.00;99873.13;5064796;28;19935;-86
2021/03/22 11:37:54;;;;;;;;;;;;;;;8.50;100.00;99870.69;5089204;28;20120;-79
2021/03/22 11:40:27;;;;;;;;;;;;;;;8.58;100.00;99877.91;5090964;28;20306;-80
2021/03/22 11:42:56;;;;;;;;;;;;;;;8.68;100.00;99871.56;5091392;28;19977;-80
2021/03/22 11:45:23;;;;;;;;;;;;;;;8.65;100.00;99877.13;5091575;28;19924;-80
2021/03/22 11:47:49;;;;;;;;;;;;;;;8.61;100.00;99871.56;5091354;28;19928;-80
2021/03/22 11:50:22;;;;;;;;;;;;;;;8.54;100.00;99871.50;5108427;28;19924;-81
2021/03/22 11:52:59;;;;;;;;;;;;;;;8.45;100.00;99870.28;5092496;28;19935;-79
2021/03/22 11:55:52;;;;;;;;;;;;;;;8.46;100.00;99866.31;5093347;28;19924;-79
2021/03/22 11:58:28;;;;;;;;;;;;;;;8.52;100.00;99857.19;5088827;28;20062;-79
2021/03/22 12:00:56;;;;;;;;;;;;;;;8.65;100.00;99861.22;5073270;28;19925;-79
2021/03/22 12:03:26;;;;;;;;;;;;;;;8.46;100.00;99864.31;5092300;28;20271;-79
2021/03/22 12:06:22;;;;;;;;;;;;;;;8.69;100.00;99848.09;5091534;28;19924;-79
2021/03/22 12:08:53;;;;;;;;;;;;;;;8.69;100.00;99855.66;5088704;28;20749;-80
2021/03/22 12:11:23;;;;;;;;;;;;;;;8.78;100.00;99858.88;5091952;28;20394;-80
2021/03/22 12:13:52;;;;;;;;;;;;;;;9.00;100.00;99852.19;5093532;28;19928;-79
2021/03/22 12:16:20;;;;;;;;;;;;;;;9.13;100.00;99850.63;5091937;28;20363;-80
2021/03/22 12:18:48;;;;;;;;;;;;;;;9.16;100.00;99836.69;5093318;28;20290;-80
2021/03/22 12:21:16;;;;;;;;;;;;;;;9.33;100.00;99837.13;5092103;28;20527;-80
2021/03/22 12:23:43;;;;;;;;;;;;;;;9.39;100.00;99836.31;5092192;28;20369;-80
2021/03/22 12:26:16;;;;;;;;;;;;;;;9.50;100.00;99836.31;5091809;28;20424;-80
2021/03/22 12:28:54;;;;;;;;;;;;;;;9.33;100.00;99834.34;5092744;28;19938;-80
2021/03/22 12:31:26;;;;;;;;;;;;;;;9.47;100.00;99843.50;5078837;28;20241;-80
2021/03/22 12:33:55;;;;;;;;;;;;;;;9.43;100.00;99839.13;5089494;28;19924;-80
2021/03/22 12:36:22;;;;;;;;;;;;;;;9.47;100.00;99828.75;5084835;28;19924;-80
2021/03/22 12:38:49;;;;;;;;;;;;;;;9.27;100.00;99830.34;5092968;28;19985;-80
2021/03/22 12:41:17;;;;;;;;;;;;;;;9.44;100.00;99821.19;5091783;28;19924;-79
2021/03/22 12:43:44;;;;;;;;;;;;;;;9.68;100.00;99828.78;5092338;28;19974;-80
2021/03/22 12:46:11;;;;;;;;;;;;;;;9.69;100.00;99819.19;5091927;28;20378;-80
2021/03/22 12:48:37;;;;;;;;;;;;;;;9.85;100.00;99822.34;5091701;28;19959;-80
2021/03/22 12:51:04;;;;;;;;;;;;;;;9.70;100.00;99820.78;5093118;28;20341;-80
2021/03/22 12:53:31;;;;;;;;;;;;;;;9.69;100.00;99819.19;5092994;28;19924;-80
2021/03/22 12:55:59;;;;;;;;;;;;;;;9.59;100.00;99818.00;5091150;28;19924;-79
2021/03/22 12:58:26;;;;;;;;;;;;;;;9.74;100.00;99819.59;5090724;28;19951;-79
2021/03/22 13:00:55;;;;;;;;;;;;;;;9.77;100.00;99826.38;5087470;28;19932;-79
2021/03/22 13:03:24;;;;;;;;;;;;;;;9.61;100.00;99828.75;5090045;28;20426;-79